KAIA/AIA METAR and TAF weather

Enter ICAO airport designator
Station Type Date Time Source
KAIA METAR 2018/12/10 20:53 UTC NOAA

KAIA 102053Z AUTO 25008KT 10SM CLR 03/M03 A3004 RMK AO2 SLP212 T00331028 56020


Station Type Date Time Source
KAIA Decoded METAR 2018/12/10 20:53 UTC NOAA

ALLIANCE MUNICIPAL AIRPORT, NE, United States (KAIA) 42-03N 102-48W 1196M
Dec 10, 2018 - 03:53 PM EST / 2018.12.10 2053 UTC
Wind: from the WSW (250 degrees) at 9 MPH (8 KT):0
Visibility: 10 mile(s):0
Sky conditions: clear
Temperature: 37.9 F (3.3 C)
Dew Point: 27.0 F (-2.8 C)
Relative Humidity: 64%
Pressure (altimeter): 30.04 in. Hg (1017 hPa)
Pressure tendency: 0.06 inches (2.0 hPa) lower than three hours ago
ob: KAIA 102053Z AUTO 25008KT 10SM CLR 03/M03 A3004 RMK AO2 SLP212 T00331028 56020
cycle: 21

Station Type Date Time Source
KAIA TAF 2018/12/10 18:27 UTC NOAA

TAF KAIA 101724Z 1018/1118 00000KT P6SM SKC
FM102000 26009KT P6SM SKC
FM111600 30011KT P6SM OVC250


Example: see airport list